createdAt,value
2019-01-08T00:01:55.726Z,4.00
2019-01-08T00:04:22.668Z,4.10
2019-01-08T00:06:49.632Z,2.70
2019-01-08T00:09:16.581Z,3.90
2019-01-08T00:11:43.536Z,3.90
2019-01-08T00:14:10.492Z,4.00
2019-01-08T00:16:37.507Z,4.80
2019-01-08T00:19:04.452Z,4.00
2019-01-08T00:21:31.476Z,4.40
2019-01-08T00:23:58.445Z,3.80
2019-01-08T00:26:26.763Z,3.80
2019-01-08T00:28:53.717Z,3.80
2019-01-08T00:31:20.648Z,3.90
2019-01-08T00:33:47.596Z,4.00
2019-01-08T00:36:14.620Z,3.90
2019-01-08T00:38:41.483Z,3.90
2019-01-08T00:41:08.404Z,4.10
2019-01-08T00:43:35.347Z,4.00
2019-01-08T00:46:02.304Z,4.00
2019-01-08T00:48:29.277Z,4.00
2019-01-08T00:50:56.244Z,3.90
2019-01-08T00:53:23.176Z,3.90
2019-01-08T00:55:50.125Z,4.00
2019-01-08T00:58:17.100Z,3.90
2019-01-08T01:00:44.023Z,4.50
2019-01-08T01:03:10.962Z,3.80
2019-01-08T01:05:37.891Z,3.90
2019-01-08T01:08:04.827Z,3.00
2019-01-08T01:10:31.802Z,4.00
2019-01-08T01:12:58.744Z,3.90
2019-01-08T01:15:25.692Z,3.90
2019-01-08T01:17:52.623Z,4.10
2019-01-08T01:20:19.600Z,4.10
2019-01-08T01:22:46.544Z,4.00
2019-01-08T01:25:13.494Z,4.10
2019-01-08T01:27:41.846Z,4.00
2019-01-08T01:30:08.852Z,4.00
2019-01-08T01:32:35.803Z,4.00
2019-01-08T01:35:02.747Z,2.10
2019-01-08T01:37:29.696Z,4.00
2019-01-08T01:39:56.616Z,4.20
2019-01-08T01:42:23.580Z,4.00
2019-01-08T01:44:50.537Z,4.00
2019-01-08T01:47:17.475Z,4.00
2019-01-08T01:49:44.437Z,4.00
2019-01-08T01:52:11.360Z,4.00
2019-01-08T01:54:38.298Z,3.90
2019-01-08T01:57:05.261Z,4.00
2019-01-08T01:59:32.184Z,4.00
2019-01-08T02:01:59.106Z,3.90
2019-01-08T02:04:26.077Z,3.90
2019-01-08T02:06:53.053Z,3.90
2019-01-08T02:09:19.987Z,3.90
2019-01-08T02:11:46.936Z,3.80
2019-01-08T02:14:13.863Z,3.90
2019-01-08T02:16:40.792Z,3.90
2019-01-08T02:19:07.760Z,4.00
2019-01-08T02:21:34.694Z,4.00
2019-01-08T02:24:01.637Z,3.90
2019-01-08T02:26:28.579Z,4.20
2019-01-08T02:28:55.971Z,4.00
2019-01-08T02:31:22.907Z,4.00
2019-01-08T02:33:49.844Z,3.90
2019-01-08T02:36:16.781Z,4.10
2019-01-08T02:38:43.712Z,4.00
2019-01-08T02:41:11.565Z,4.10
2019-01-08T02:43:38.455Z,4.00
2019-01-08T02:46:05.553Z,4.00
2019-01-08T02:48:32.461Z,4.00
2019-01-08T02:50:59.389Z,4.00
2019-01-08T02:53:26.343Z,4.10
2019-01-08T02:55:53.315Z,4.10
2019-01-08T02:58:20.274Z,4.00
2019-01-08T03:00:47.239Z,4.00
2019-01-08T03:03:14.190Z,4.00
2019-01-08T03:05:41.132Z,4.00
2019-01-08T03:08:08.059Z,4.10
2019-01-08T03:10:35.030Z,4.10
2019-01-08T03:13:02.009Z,4.10
2019-01-08T03:15:28.945Z,4.20
2019-01-08T03:17:55.919Z,4.20
2019-01-08T03:20:22.861Z,4.30
2019-01-08T03:22:49.796Z,4.20
2019-01-08T03:25:16.781Z,4.20
2019-01-08T03:27:43.720Z,4.20
2019-01-08T03:30:12.210Z,4.20
2019-01-08T03:32:39.193Z,4.20
2019-01-08T03:35:06.108Z,4.10
2019-01-08T03:37:33.053Z,4.20
2019-01-08T03:39:59.997Z,5.50
2019-01-08T03:42:26.956Z,4.30
2019-01-08T03:44:53.903Z,4.20
2019-01-08T03:47:20.862Z,4.40
2019-01-08T03:49:47.824Z,4.30
2019-01-08T03:52:14.747Z,4.30
2019-01-08T03:54:41.691Z,4.30
2019-01-08T03:57:08.608Z,4.30
2019-01-08T03:59:41.872Z,4.30
2019-01-08T04:02:02.490Z,4.30
2019-01-08T04:04:29.475Z,4.60
2019-01-08T04:06:56.424Z,4.40
2019-01-08T04:09:23.433Z,4.30
2019-01-08T04:11:50.402Z,4.40
2019-01-08T04:14:17.288Z,4.40
2019-01-08T04:16:44.260Z,4.40
2019-01-08T04:19:11.192Z,4.40
2019-01-08T04:21:38.129Z,4.30
2019-01-08T04:24:06.634Z,4.50
2019-01-08T04:26:33.701Z,4.50
2019-01-08T04:29:00.609Z,4.80
2019-01-08T04:31:28.917Z,4.60
2019-01-08T04:33:55.847Z,4.50
2019-01-08T04:36:22.780Z,4.60
2019-01-08T04:38:49.736Z,4.60
2019-01-08T04:41:16.700Z,4.50
2019-01-08T04:43:43.627Z,4.60
2019-01-08T04:46:10.572Z,4.60
2019-01-08T04:48:37.516Z,3.70
2019-01-08T04:51:04.456Z,4.50
2019-01-08T04:53:31.407Z,4.60
2019-01-08T04:55:58.859Z,4.70
2019-01-08T04:58:25.825Z,4.60
2019-01-08T05:00:52.800Z,4.80
2019-01-08T05:03:19.736Z,4.60
2019-01-08T05:05:46.706Z,4.60
2019-01-08T05:08:13.628Z,4.60
2019-01-08T05:10:40.559Z,4.60
2019-01-08T05:13:08.168Z,5.70
2019-01-08T05:15:35.103Z,3.40
2019-01-08T05:18:02.021Z,4.60
2019-01-08T05:20:28.947Z,4.60
2019-01-08T05:22:55.883Z,4.50
2019-01-08T05:25:22.815Z,4.60
2019-01-08T05:27:49.765Z,4.30
2019-01-08T05:30:16.720Z,4.60
2019-01-08T05:32:44.093Z,4.70
2019-01-08T05:35:11.027Z,4.60
2019-01-08T05:37:37.965Z,4.60
2019-01-08T05:40:05.016Z,4.60
2019-01-08T05:42:31.939Z,4.50
2019-01-08T05:44:58.912Z,4.60
2019-01-08T05:47:25.846Z,4.60
2019-01-08T05:49:52.776Z,4.60
2019-01-08T05:52:19.732Z,4.60
2019-01-08T05:54:46.668Z,4.60
2019-01-08T05:57:13.625Z,4.60
2019-01-08T05:59:40.598Z,4.90
2019-01-08T06:02:07.549Z,4.60
2019-01-08T06:04:34.496Z,4.50
2019-01-08T06:07:01.464Z,4.50
2019-01-08T06:09:28.417Z,4.60
2019-01-08T06:11:55.356Z,4.50
2019-01-08T06:14:22.325Z,4.50
2019-01-08T06:16:49.243Z,4.60
2019-01-08T06:19:16.172Z,4.90
2019-01-08T06:21:43.120Z,4.60
2019-01-08T06:24:10.043Z,4.60
2019-01-08T06:26:36.974Z,4.60
2019-01-08T06:29:03.922Z,4.60
2019-01-08T06:31:30.845Z,4.50
2019-01-08T06:33:58.081Z,4.60
2019-01-08T06:36:26.231Z,4.60
2019-01-08T06:38:52.037Z,4.60
2019-01-08T06:41:18.988Z,4.60
2019-01-08T06:43:45.989Z,4.10
2019-01-08T06:46:12.923Z,5.00
2019-01-08T06:48:39.881Z,4.70
2019-01-08T06:51:06.815Z,4.70
2019-01-08T06:53:33.745Z,4.70
2019-01-08T06:56:00.675Z,4.60
2019-01-08T06:58:27.627Z,4.70
2019-01-08T07:00:54.563Z,4.70
2019-01-08T07:03:21.494Z,4.70
2019-01-08T07:05:48.454Z,4.70
2019-01-08T07:08:15.382Z,4.80
2019-01-08T07:10:42.300Z,4.90
2019-01-08T07:13:09.244Z,4.80
2019-01-08T07:15:36.232Z,4.90
2019-01-08T07:18:03.177Z,4.90
2019-01-08T07:20:30.111Z,4.90
2019-01-08T07:22:57.063Z,4.80
2019-01-08T07:25:23.992Z,4.80
2019-01-08T07:27:50.952Z,5.00
2019-01-08T07:30:17.919Z,4.80
2019-01-08T07:32:44.856Z,4.90
2019-01-08T07:35:12.008Z,4.90
2019-01-08T07:37:38.936Z,4.90
2019-01-08T07:40:06.230Z,4.90
2019-01-08T07:42:33.187Z,5.00
2019-01-08T07:45:00.186Z,5.00
2019-01-08T07:47:27.040Z,6.10
2019-01-08T07:49:53.980Z,4.90
2019-01-08T07:52:20.923Z,5.00
2019-01-08T07:54:47.844Z,5.10
2019-01-08T07:57:14.788Z,5.10
2019-01-08T07:59:41.724Z,5.00
2019-01-08T08:02:08.657Z,5.00
2019-01-08T08:04:35.630Z,5.10
2019-01-08T08:07:02.583Z,5.20
2019-01-08T08:09:29.503Z,5.10
2019-01-08T08:11:56.531Z,5.10
2019-01-08T08:14:23.452Z,5.20
2019-01-08T08:16:50.400Z,5.30
2019-01-08T08:19:17.352Z,5.30
2019-01-08T08:21:44.291Z,5.30
2019-01-08T08:24:11.219Z,5.20
2019-01-08T08:26:38.180Z,5.50
2019-01-08T08:29:05.138Z,5.50
2019-01-08T08:31:32.079Z,5.60
2019-01-08T08:33:59.023Z,5.70
2019-01-08T08:36:28.284Z,5.80
2019-01-08T08:38:55.226Z,5.80
2019-01-08T08:41:22.173Z,4.20
2019-01-08T08:43:49.142Z,5.80
2019-01-08T08:46:16.101Z,5.80
2019-01-08T08:48:43.064Z,5.90
2019-01-08T08:51:09.993Z,5.90
2019-01-08T08:53:36.935Z,5.90
2019-01-08T08:56:03.893Z,5.90
2019-01-08T08:58:30.831Z,5.90
2019-01-08T09:00:57.781Z,5.90
2019-01-08T09:03:24.743Z,6.10
2019-01-08T09:05:51.899Z,6.20
2019-01-08T09:08:18.835Z,6.20
2019-01-08T09:10:45.805Z,6.20
2019-01-08T09:13:12.719Z,6.40
2019-01-08T09:15:39.658Z,6.60
2019-01-08T09:18:06.599Z,7.10
2019-01-08T09:20:33.532Z,7.20
2019-01-08T09:23:00.476Z,7.10
2019-01-08T09:25:27.417Z,8.40
2019-01-08T09:27:54.418Z,9.90
2019-01-08T09:30:21.289Z,11.80
2019-01-08T09:32:48.243Z,13.20
2019-01-08T09:35:15.172Z,14.40
2019-01-08T09:37:43.416Z,15.50
2019-01-08T09:40:10.372Z,15.20
2019-01-08T09:42:37.307Z,15.10
2019-01-08T09:45:05.136Z,14.40
2019-01-08T09:47:32.090Z,13.20
2019-01-08T09:49:59.032Z,12.00
2019-01-08T09:52:25.956Z,11.20
2019-01-08T09:54:52.914Z,11.80
2019-01-08T09:57:19.860Z,12.80
2019-01-08T09:59:46.825Z,14.00
2019-01-08T10:02:13.770Z,15.20
2019-01-08T10:04:40.719Z,15.90
2019-01-08T10:07:07.650Z,16.50
2019-01-08T10:09:34.615Z,17.40
2019-01-08T10:12:01.556Z,17.50
2019-01-08T10:14:28.476Z,18.20
2019-01-08T10:16:55.453Z,18.50
2019-01-08T10:19:22.390Z,17.10
2019-01-08T10:21:49.325Z,15.80
2019-01-08T10:24:16.270Z,14.70
2019-01-08T10:26:43.217Z,13.40
2019-01-08T10:29:10.193Z,12.40
2019-01-08T10:31:37.140Z,12.00
2019-01-08T10:34:04.068Z,11.60
2019-01-08T10:36:31.013Z,11.10
2019-01-08T10:38:59.349Z,10.30
2019-01-08T10:41:26.272Z,9.40
2019-01-08T10:43:53.199Z,9.40
2019-01-08T10:46:20.176Z,9.30
2019-01-08T10:48:47.103Z,9.60
2019-01-08T10:51:14.032Z,10.70
2019-01-08T10:53:41.040Z,12.60
2019-01-08T10:56:07.958Z,13.90
2019-01-08T10:58:34.889Z,15.30
2019-01-08T11:01:01.871Z,15.30
2019-01-08T11:03:28.823Z,15.20
2019-01-08T11:05:55.822Z,14.50
2019-01-08T11:08:22.763Z,14.70
2019-01-08T11:10:49.706Z,15.30
2019-01-08T11:13:16.664Z,16.00
2019-01-08T11:15:43.604Z,16.80
2019-01-08T11:18:10.551Z,17.40
2019-01-08T11:20:37.475Z,16.70
2019-01-08T11:23:04.468Z,15.60
2019-01-08T11:25:31.486Z,14.20
2019-01-08T11:27:58.414Z,12.80
2019-01-08T11:30:25.400Z,11.60
2019-01-08T11:32:52.333Z,9.00
2019-01-08T11:35:19.272Z,10.20
2019-01-08T11:37:46.244Z,10.00
2019-01-08T11:40:14.624Z,9.80
2019-01-08T11:42:41.555Z,9.80
2019-01-08T11:45:09.048Z,9.50
2019-01-08T11:47:35.977Z,9.40
2019-01-08T11:50:04.818Z,9.50
2019-01-08T11:52:31.065Z,7.40
2019-01-08T11:54:57.991Z,8.90
2019-01-08T11:57:24.921Z,8.70
2019-01-08T11:59:51.882Z,8.50
2019-01-08T12:02:18.799Z,8.60
2019-01-08T12:04:45.771Z,8.30
2019-01-08T12:07:12.716Z,8.20
2019-01-08T12:09:39.648Z,8.10
2019-01-08T12:12:06.846Z,8.00
2019-01-08T12:14:33.785Z,7.90
2019-01-08T12:17:00.719Z,7.90
2019-01-08T12:19:27.645Z,7.90
2019-01-08T12:21:54.587Z,7.90
2019-01-08T12:24:21.553Z,8.00
2019-01-08T12:26:48.488Z,8.00
2019-01-08T12:29:15.457Z,8.00
2019-01-08T12:31:42.389Z,8.00
2019-01-08T12:34:09.310Z,8.10
2019-01-08T12:36:36.256Z,8.20
2019-01-08T12:39:04.671Z,8.80
2019-01-08T12:41:31.987Z,9.10
2019-01-08T12:43:58.939Z,9.20
2019-01-08T12:46:25.884Z,9.60
2019-01-08T12:48:52.811Z,9.40
2019-01-08T12:51:19.758Z,9.10
2019-01-08T12:53:46.688Z,9.00
2019-01-08T12:56:13.632Z,8.60
2019-01-08T12:58:40.575Z,8.20
2019-01-08T13:01:07.509Z,8.00
2019-01-08T13:03:34.433Z,7.90
2019-01-08T13:06:01.391Z,7.80
2019-01-08T13:08:28.324Z,7.70
2019-01-08T13:10:55.256Z,6.80
2019-01-08T13:13:22.233Z,7.70
2019-01-08T13:15:49.155Z,7.70
2019-01-08T13:18:16.087Z,7.60
2019-01-08T13:20:43.053Z,7.60
2019-01-08T13:23:09.978Z,7.50
2019-01-08T13:25:36.919Z,7.50
2019-01-08T13:28:03.864Z,7.40
2019-01-08T13:30:30.792Z,7.30
2019-01-08T13:32:57.740Z,7.20
2019-01-08T13:35:24.707Z,6.80
2019-01-08T13:37:51.675Z,7.30
2019-01-08T13:40:18.607Z,6.90
2019-01-08T13:42:46.773Z,6.90
2019-01-08T13:45:13.714Z,6.70
2019-01-08T13:47:40.696Z,6.80
2019-01-08T13:50:08.167Z,6.70
2019-01-08T13:52:35.107Z,6.60
2019-01-08T13:55:02.041Z,6.60
2019-01-08T13:57:28.977Z,6.70
2019-01-08T13:59:55.933Z,6.60
2019-01-08T14:02:22.869Z,6.60
2019-01-08T14:04:49.823Z,6.70
2019-01-08T14:07:16.763Z,6.70
2019-01-08T14:09:43.719Z,6.70
2019-01-08T14:12:10.668Z,6.80
2019-01-08T14:14:37.613Z,6.80
2019-01-08T14:17:04.528Z,6.80
2019-01-08T14:19:31.472Z,6.90
2019-01-08T14:21:58.412Z,6.80
2019-01-08T14:24:25.332Z,6.70
2019-01-08T14:26:52.297Z,6.70
2019-01-08T14:29:19.240Z,6.70
2019-01-08T14:31:46.163Z,6.60
2019-01-08T14:34:13.139Z,6.60
2019-01-08T14:36:40.068Z,6.50
2019-01-08T14:39:07.011Z,6.40
2019-01-08T14:41:33.975Z,6.40
2019-01-08T14:44:02.336Z,6.50
2019-01-08T14:46:29.339Z,6.40
2019-01-08T14:48:56.238Z,6.50
2019-01-08T14:51:23.174Z,6.50
2019-01-08T14:53:50.111Z,6.70
2019-01-08T14:56:17.075Z,6.40
2019-01-08T14:58:44.016Z,6.20
2019-01-08T15:01:10.947Z,6.30
2019-01-08T15:03:37.911Z,6.20
2019-01-08T15:06:04.852Z,6.20
2019-01-08T15:08:31.787Z,6.20
2019-01-08T15:10:58.744Z,6.20
2019-01-08T15:13:25.677Z,6.30
2019-01-08T15:15:52.626Z,6.20
2019-01-08T15:18:19.556Z,6.20
2019-01-08T15:20:46.493Z,3.50
2019-01-08T15:23:13.428Z,6.30
2019-01-08T15:25:40.384Z,6.30
2019-01-08T15:28:07.307Z,6.40
2019-01-08T15:30:34.252Z,6.20
2019-01-08T15:33:01.200Z,4.90
2019-01-08T15:35:28.123Z,6.20
2019-01-08T15:37:55.051Z,6.20
2019-01-08T15:40:22.024Z,6.20
2019-01-08T15:42:48.955Z,6.20
2019-01-08T15:45:18.583Z,6.10
2019-01-08T15:47:45.548Z,6.10
2019-01-08T15:50:12.483Z,6.10
2019-01-08T15:52:39.424Z,6.00
2019-01-08T15:55:06.368Z,5.90
2019-01-08T15:57:33.295Z,6.60
2019-01-08T16:00:00.240Z,6.00
2019-01-08T16:02:27.194Z,5.90
2019-01-08T16:04:54.128Z,6.00
2019-01-08T16:07:21.071Z,5.90
2019-01-08T16:09:48.874Z,5.90
2019-01-08T16:12:14.986Z,5.90
2019-01-08T16:14:41.912Z,6.00
2019-01-08T16:17:08.872Z,6.10
2019-01-08T16:19:35.848Z,6.00
2019-01-08T16:22:02.792Z,6.00
2019-01-08T16:24:29.769Z,6.00
2019-01-08T16:26:56.716Z,5.90
2019-01-08T16:29:23.655Z,5.90
2019-01-08T16:31:50.617Z,5.90
2019-01-08T16:34:17.539Z,5.80
2019-01-08T16:36:44.529Z,5.80
2019-01-08T16:39:11.454Z,5.80
2019-01-08T16:41:38.377Z,5.80
2019-01-08T16:44:05.336Z,5.70
2019-01-08T16:46:33.108Z,5.60
2019-01-08T16:49:00.037Z,5.60
2019-01-08T16:51:26.965Z,5.60
2019-01-08T16:53:53.905Z,5.60
2019-01-08T16:56:20.846Z,5.60
2019-01-08T16:58:47.785Z,5.40
2019-01-08T17:01:14.777Z,5.50
2019-01-08T17:03:41.712Z,5.50
2019-01-08T17:06:08.644Z,5.50
2019-01-08T17:08:35.588Z,5.60
2019-01-08T17:11:02.536Z,5.40
2019-01-08T17:13:29.469Z,5.50
2019-01-08T17:15:56.440Z,5.40
2019-01-08T17:18:23.359Z,5.50
2019-01-08T17:20:50.292Z,5.50
2019-01-08T17:23:17.221Z,5.40
2019-01-08T17:25:47.975Z,5.30
2019-01-08T17:28:11.087Z,5.20
2019-01-08T17:30:38.035Z,5.30
2019-01-08T17:33:05.117Z,5.30
2019-01-08T17:35:32.048Z,5.30
2019-01-08T17:37:59.008Z,5.30
2019-01-08T17:40:25.967Z,5.30
2019-01-08T17:42:52.885Z,5.30
2019-01-08T17:45:19.847Z,5.40
2019-01-08T17:47:48.225Z,5.30
2019-01-08T17:50:15.159Z,5.30
2019-01-08T17:52:42.100Z,5.30
2019-01-08T17:55:09.049Z,5.30
2019-01-08T17:57:35.975Z,5.30
2019-01-08T18:00:03.920Z,5.20
2019-01-08T18:02:30.859Z,5.20
2019-01-08T18:04:57.797Z,6.70
2019-01-08T18:07:24.740Z,5.30
2019-01-08T18:09:51.680Z,4.50
2019-01-08T18:12:18.644Z,5.50
2019-01-08T18:14:45.608Z,5.40
2019-01-08T18:17:12.578Z,5.40
2019-01-08T18:19:39.511Z,5.40
2019-01-08T18:22:06.479Z,5.50
2019-01-08T18:24:33.411Z,5.50
2019-01-08T18:27:00.418Z,5.40
2019-01-08T18:29:27.377Z,5.40
2019-01-08T18:31:54.620Z,5.40
2019-01-08T18:34:21.553Z,5.30
2019-01-08T18:36:48.533Z,5.40
2019-01-08T18:39:15.461Z,5.50
2019-01-08T18:41:42.428Z,5.40
2019-01-08T18:44:09.371Z,5.40
2019-01-08T18:46:36.303Z,5.40
2019-01-08T18:49:04.943Z,5.40
2019-01-08T18:51:32.132Z,5.40
2019-01-08T18:53:59.051Z,5.40
2019-01-08T18:56:25.990Z,5.40
2019-01-08T18:58:52.939Z,5.40
2019-01-08T19:01:19.885Z,5.40
2019-01-08T19:03:46.825Z,5.50
2019-01-08T19:06:13.809Z,5.50
2019-01-08T19:08:52.393Z,5.40
2019-01-08T19:11:19.352Z,5.50
2019-01-08T19:13:46.295Z,5.50
2019-01-08T19:16:13.217Z,5.50
2019-01-08T19:18:40.201Z,5.50
2019-01-08T19:21:07.123Z,5.40
2019-01-08T19:23:34.049Z,5.50
2019-01-08T19:26:00.993Z,5.40
2019-01-08T19:28:27.937Z,5.40
2019-01-08T19:30:54.874Z,5.80
2019-01-08T19:33:21.837Z,5.40
2019-01-08T19:35:48.780Z,5.30
2019-01-08T19:38:15.704Z,5.40
2019-01-08T19:40:42.669Z,3.30
2019-01-08T19:43:09.620Z,5.40
2019-01-08T19:45:36.573Z,5.30
2019-01-08T19:48:03.586Z,5.30
2019-01-08T19:50:32.300Z,5.30
2019-01-08T19:52:59.232Z,5.20
2019-01-08T19:55:26.201Z,5.10
2019-01-08T19:57:53.131Z,5.10
2019-01-08T20:00:20.082Z,5.10
2019-01-08T20:02:47.058Z,5.10
2019-01-08T20:05:14.008Z,5.00
2019-01-08T20:07:41.071Z,5.00
2019-01-08T20:10:08.073Z,5.00
2019-01-08T20:12:35.011Z,5.10
2019-01-08T20:15:01.956Z,5.10
2019-01-08T20:17:30.939Z,5.10
2019-01-08T20:19:55.902Z,5.20
2019-01-08T20:22:22.861Z,5.10
2019-01-08T20:24:49.823Z,5.00
2019-01-08T20:27:16.787Z,5.10
2019-01-08T20:29:43.731Z,5.30
2019-01-08T20:32:10.701Z,5.30
2019-01-08T20:34:37.641Z,5.20
2019-01-08T20:37:04.588Z,5.20
2019-01-08T20:39:31.588Z,5.20
2019-01-08T20:41:58.536Z,5.20
2019-01-08T20:44:25.468Z,5.20
2019-01-08T20:46:52.429Z,5.60
2019-01-08T20:49:19.359Z,5.20
2019-01-08T20:51:46.805Z,5.20
2019-01-08T20:54:13.791Z,5.20
2019-01-08T20:56:40.733Z,5.20
2019-01-08T20:59:07.668Z,5.60
2019-01-08T21:01:34.626Z,5.20
2019-01-08T21:04:01.552Z,5.20
2019-01-08T21:06:28.477Z,5.30
2019-01-08T21:08:55.426Z,5.60
2019-01-08T21:11:22.364Z,5.30
2019-01-08T21:13:49.311Z,5.30
2019-01-08T21:16:16.275Z,5.20
2019-01-08T21:18:43.233Z,5.20
2019-01-08T21:21:10.200Z,5.20
2019-01-08T21:23:37.161Z,5.20
2019-01-08T21:26:04.113Z,5.10
2019-01-08T21:28:31.451Z,5.10
2019-01-08T21:30:58.005Z,5.30
2019-01-08T21:33:24.940Z,5.30
2019-01-08T21:35:51.884Z,3.80
2019-01-08T21:38:18.842Z,5.30
2019-01-08T21:40:45.783Z,5.40
2019-01-08T21:43:12.724Z,5.30
2019-01-08T21:45:39.677Z,5.80
2019-01-08T21:48:06.623Z,5.20
2019-01-08T21:50:33.623Z,6.40
2019-01-08T21:53:00.855Z,5.20
2019-01-08T21:55:27.821Z,5.10
2019-01-08T21:57:54.781Z,5.10
2019-01-08T22:00:21.708Z,5.20
2019-01-08T22:02:48.737Z,5.00
2019-01-08T22:05:15.597Z,4.90
2019-01-08T22:07:42.558Z,4.90
2019-01-08T22:10:09.507Z,4.90
2019-01-08T22:12:36.457Z,5.00
2019-01-08T22:15:03.559Z,4.90
2019-01-08T22:17:30.498Z,5.00
2019-01-08T22:19:57.468Z,4.90
2019-01-08T22:22:24.482Z,5.00
2019-01-08T22:24:51.384Z,4.90
2019-01-08T22:27:18.328Z,4.90
2019-01-08T22:29:45.303Z,4.90
2019-01-08T22:32:12.218Z,4.90
2019-01-08T22:34:39.159Z,5.00
2019-01-08T22:37:06.121Z,4.80
2019-01-08T22:39:33.064Z,4.80
2019-01-08T22:42:00.008Z,4.80
2019-01-08T22:44:26.988Z,4.70
2019-01-08T22:46:55.382Z,4.80
2019-01-08T22:49:20.875Z,4.70
2019-01-08T22:51:47.871Z,4.70
2019-01-08T22:54:15.535Z,4.90
2019-01-08T22:56:42.473Z,4.70
2019-01-08T22:59:09.417Z,4.60
2019-01-08T23:01:41.288Z,4.60
2019-01-08T23:04:10.097Z,4.70
2019-01-08T23:06:37.051Z,4.60
2019-01-08T23:09:06.109Z,4.60
2019-01-08T23:11:33.053Z,3.50
2019-01-08T23:14:00.014Z,5.60
2019-01-08T23:16:26.942Z,4.50
2019-01-08T23:18:53.893Z,4.60
2019-01-08T23:21:20.856Z,4.50
2019-01-08T23:23:47.816Z,4.50
2019-01-08T23:26:14.779Z,4.50
2019-01-08T23:28:41.716Z,4.60
2019-01-08T23:31:08.647Z,4.60
2019-01-08T23:33:35.594Z,4.50
2019-01-08T23:36:02.511Z,4.60
2019-01-08T23:38:29.448Z,4.60
2019-01-08T23:40:56.403Z,4.70
2019-01-08T23:43:23.352Z,4.60
2019-01-08T23:45:50.289Z,4.60
2019-01-08T23:48:17.244Z,4.60
2019-01-08T23:50:44.196Z,5.40
2019-01-08T23:53:18.863Z,4.70
2019-01-08T23:55:48.457Z,4.60
2019-01-08T23:58:15.400Z,4.60
